VE-0176 weather

San Antonio de Maturín Heliport
San Antonio , Monagas, Venezuela

Public forecast

Using degrees Celsius for public forecast. Weather courtesy of forecast.io.

Closest aviation weather report (METAR) to San Antonio de Maturín Heliport

Report is more than 6 hours old.

Closest report is Cumaná (Antonio José de Sucre) Airport, 31.6 nm (58.5 km) NW. Retrieved 2019/06/24 18:04 UTC (8 months ago):

SVCU 241804Z 10025KT 9999 CB/NE

Closest aviation forecast (TAF) to San Antonio de Maturín Heliport

Closest forecast is Del Caribe Santiago Mariño International Airport, 50.0 nm (92.6 km) NNW. Retrieved 2020/02/17 18:06 UTC (0 seconds ago):

TAF SVMG 171000Z 1718/1818 12004KT FEW010 TX32/18Z TN21/07Z BECMG 1718/1722 05003KT 9999 FEW016